Island City, Indiana
Current Conditions -  °F | °C
As of 10:55 AM on Friday 31 Oct 2014 (Local Time) from KDCY Reporting Station
Overcast Overcast  
Wind Chill:   Ceiling: 1700
Heat Index:   Visibility: 10mi
Dew Point:   Wind: 21mph
Humidity: 87%   Direction: 340°NNW
Pressure: 30.07"   Gusts: 33mph
Location:  39.0608°N, 87.1852°W
Report Text: KDCY 311455Z AUTO 34018G29KT 10SM OVC017 05/03 A3007 RMK AO2 T00540034
Loading
Personal Weather Stations






























Interactive Weather Map
Tropical Storm Tracking
New forecast layout! Learn more

10-Day Weather Forecast

Advertisements
Track Severe Weather on mobile